| time (UTC) | temp F | wind direction | speed MPH | gust MPH | rain 1hr in | rain 24hr in | rain mn in | humidity % | barometer mb |
| 20260508222549 | 64 | 114 | 0.0 | 0.0 | 0.00 | 0.00 | 0.00 | 76 | 1014.4 |
| 20260508215547 | 65 | 114 | 0.0 | 0.0 | 0.00 | 0.00 | 0.00 | 75 | 1014.0 |
| 20260508212544 | 66 | 109 | 0.0 | 0.0 | 0.00 | 0.00 | 0.00 | 75 | 1014.5 |
| 20260508205542 | 68 | 108 | 0.0 | 0.0 | 0.00 | 0.00 | 0.00 | 72 | 1014.5 |
| 20260508202537 | 68 | 108 | 0.0 | 0.0 | 0.00 | 0.00 | 0.00 | 66 | 1014.2 |
| 20260508195535 | 69 | 98 | 0.0 | 0.0 | 0.00 | 0.00 | 0.00 | 65 | 1015.1 |
| 20260508192532 | 69 | 107 | 0.0 | 0.0 | 0.00 | 0.00 | 0.00 | 66 | 1015.1 |
| 20260508185530 | 68 | 104 | 0.0 | 0.0 | 0.00 | 0.00 | 0.00 | 69 | 1015.1 |
| 20260508182528 | 68 | 99 | 0.0 | 0.0 | 0.00 | 0.00 | 0.00 | 66 | 1015.7 |
| 20260508175525 | 68 | 95 | 0.0 | 0.0 | 0.00 | 0.00 | 0.00 | 62 | 1015.9 |
| 20260508172524 | 68 | 84 | 0.0 | 0.0 | 0.00 | 0.00 | 0.00 | 60 | 1016.6 |
| 20260508165523 | 70 | 80 | 0.0 | 0.0 | 0.00 | 0.00 | 0.00 | 56 | 1016.9 |
| 20260508162521 | 70 | 80 | 0.0 | 0.0 | 0.00 | 0.00 | 0.00 | 57 | 1017.2 |
| 20260508155516 | 69 | 80 | 0.0 | 0.0 | 0.00 | 0.00 | 0.00 | 59 | 1017.7 |
| 20260508152515 | 68 | 80 | 0.0 | 0.0 | 0.00 | 0.00 | 0.00 | 64 | 1018.0 |
| 20260508145512 | 67 | 80 | 0.0 | 0.0 | 0.00 | 0.00 | 0.00 | 63 | 1018.2 |
| 20260508142512 | 64 | 80 | 0.0 | 0.0 | 0.00 | 0.00 | 0.00 | 72 | 1018.4 |
| 20260508135509 | 64 | 80 | 0.0 | 0.0 | 0.00 | 0.00 | 0.00 | 74 | 1018.9 |
| 20260508132509 | 58 | 80 | 0.0 | 0.0 | 0.00 | 0.00 | 0.00 | 87 | 1018.6 |
| 20260508125504 | 55 | 80 | 0.0 | 0.0 | 0.00 | 0.00 | 0.00 | 99 | 1018.6 |
| 20260508122501 | 52 | 80 | 0.0 | 0.0 | 0.00 | 0.00 | 0.00 | 99 | 1018.5 |
| 20260508115458 | 50 | 80 | 0.0 | 0.0 | 0.00 | 0.00 | 0.00 | 99 | 1018.3 |
| 20260508112456 | 50 | 80 | 0.0 | 0.0 | 0.00 | 0.00 | 0.00 | 99 | 1017.9 |
| 20260508105452 | 50 | 80 | 0.0 | 0.0 | 0.00 | 0.00 | 0.00 | 99 | 1017.5 |
| 20260508102448 | 50 | 80 | 0.0 | 0.0 | 0.00 | 0.00 | 0.00 | 99 | 1017.0 |
| 20260508095443 | 50 | 80 | 0.0 | 0.0 | 0.00 | 0.00 | 0.00 | 99 | 1016.9 |
| 20260508092443 | 50 | 80 | 0.0 | 0.0 | 0.00 | 0.00 | 0.00 | 99 | 1016.0 |
| 20260508085443 | 51 | 80 | 0.0 | 0.0 | 0.00 | 0.00 | 0.00 | 99 | 1015.7 |
| 20260508082441 | 51 | 80 | 0.0 | 0.0 | 0.00 | 0.00 | 0.00 | 99 | 1015.8 |
| 20260508075441 | 52 | 80 | 0.0 | 0.0 | 0.00 | 0.00 | 0.00 | 99 | 1015.8 |
| 20260508072441 | 53 | 80 | 0.0 | 0.0 | 0.00 | 0.00 | 0.00 | 99 | 1015.8 |
| 20260508065438 | 53 | 80 | 0.0 | 0.0 | 0.00 | 0.00 | 0.00 | 99 | 1016.1 |
| 20260508062435 | 54 | 80 | 0.0 | 0.0 | 0.00 | 0.00 | 0.00 | 99 | 1016.0 |
| 20260508055434 | 54 | 80 | 0.0 | 0.0 | 0.00 | 0.00 | 0.00 | 99 | 1016.4 |
| 20260508052433 | 54 | 80 | 0.0 | 0.0 | 0.00 | 0.00 | 0.00 | 99 | 1016.6 |
| 20260508045430 | 55 | 80 | 0.0 | 0.0 | 0.00 | 0.38 | 0.38 | 99 | 1016.6 |
| 20260508042429 | 55 | 80 | 0.0 | 0.0 | 0.00 | 0.38 | 0.38 | 99 | 1016.8 |
| 20260508035428 | 55 | 80 | 0.0 | 0.0 | 0.00 | 0.38 | 0.38 | 99 | 1016.7 |
| 20260508032423 | 56 | 80 | 0.0 | 0.0 | 0.00 | 0.38 | 0.38 | 99 | 1016.5 |
| 20260508025421 | 57 | 80 | 0.0 | 0.0 | 0.00 | 0.38 | 0.38 | 99 | 1016.7 |
| 20260508022418 | 57 | 81 | 0.0 | 0.0 | 0.00 | 0.38 | 0.38 | 99 | 1016.2 |
| 20260508015418 | 58 | 87 | 0.0 | 0.0 | 0.00 | 0.38 | 0.38 | 99 | 1016.1 |
| 20260508012414 | 59 | 91 | 0.0 | 0.0 | 0.00 | 0.38 | 0.38 | 98 | 1015.9 |
| 20260508005409 | 60 | 99 | 0.0 | 0.0 | 0.00 | 0.38 | 0.38 | 96 | 1015.6 |
| 20260508002406 | 61 | 102 | 0.0 | 0.0 | 0.00 | 0.38 | 0.38 | 90 | 1015.7 |
| 20260507235403 | 63 | 103 | 0.0 | 0.0 | 0.00 | 0.38 | 0.38 | 88 | 1015.2 |
| 20260507232402 | 65 | 104 | 0.0 | 0.0 | 0.00 | 0.38 | 0.38 | 82 | 1015.3 |
| 20260507225358 | 66 | 102 | 0.0 | 0.0 | 0.00 | 0.38 | 0.38 | 77 | 1014.9 |